createdAt,value
2023-04-16T00:00:52.241Z,9.39
2023-04-16T00:03:19.822Z,9.38
2023-04-16T00:05:48.873Z,9.22
2023-04-16T00:08:16.442Z,9.31
2023-04-16T00:10:43.913Z,9.25
2023-04-16T00:13:11.366Z,9.32
2023-04-16T00:15:38.846Z,9.31
2023-04-16T00:18:06.253Z,9.41
2023-04-16T00:20:33.685Z,9.42
2023-04-16T00:23:02.467Z,9.47
2023-04-16T00:25:29.939Z,9.26
2023-04-16T00:27:57.393Z,9.29
2023-04-16T00:30:24.846Z,9.51
2023-04-16T00:32:52.291Z,9.36
2023-04-16T00:35:19.970Z,9.26
2023-04-16T00:37:47.445Z,9.35
2023-04-16T00:40:16.247Z,9.40
2023-04-16T00:42:43.721Z,9.45
2023-04-16T00:45:12.568Z,9.35
2023-04-16T00:47:40.187Z,9.34
2023-04-16T00:50:08.851Z,9.42
2023-04-16T00:52:36.475Z,9.42
2023-04-16T00:55:04.555Z,9.28
2023-04-16T00:57:33.369Z,9.34
2023-04-16T01:00:00.868Z,9.30
2023-04-16T01:02:28.590Z,9.36
2023-04-16T01:04:56.317Z,9.34
2023-04-16T01:07:23.757Z,9.15
2023-04-16T01:09:51.177Z,9.36
2023-04-16T01:12:18.624Z,9.31
2023-04-16T01:14:47.831Z,9.29
2023-04-16T01:17:15.281Z,9.34
2023-04-16T01:19:44.165Z,9.26
2023-04-16T01:22:12.975Z,9.35
2023-04-16T01:24:40.864Z,9.21
2023-04-16T01:27:08.331Z,9.29
2023-04-16T01:29:35.802Z,9.36
2023-04-16T01:32:03.294Z,9.31
2023-04-16T01:34:30.777Z,9.16
2023-04-16T01:36:58.312Z,8.99
2023-04-16T01:39:27.165Z,9.08
2023-04-16T01:41:54.619Z,9.19
2023-04-16T01:44:23.088Z,9.23
2023-04-16T01:46:50.596Z,9.19
2023-04-16T01:49:18.190Z,9.06
2023-04-16T01:51:45.654Z,9.03
2023-04-16T01:54:13.958Z,9.14
2023-04-16T01:56:42.837Z,9.19
2023-04-16T01:59:10.877Z,9.30
2023-04-16T02:01:38.533Z,9.25
2023-04-16T02:04:07.437Z,9.18
2023-04-16T02:06:34.900Z,9.31
2023-04-16T02:09:02.397Z,9.35
2023-04-16T02:11:29.870Z,9.39
2023-04-16T02:13:58.647Z,9.25
2023-04-16T02:16:26.363Z,9.34
2023-04-16T02:18:54.020Z,9.21
2023-04-16T02:21:21.484Z,9.24
2023-04-16T02:23:51.518Z,9.32
2023-04-16T02:26:19.005Z,9.30
2023-04-16T02:28:46.480Z,9.42
2023-04-16T02:31:17.867Z,9.41
2023-04-16T02:33:45.380Z,9.33
2023-04-16T02:36:12.902Z,9.16
2023-04-16T02:38:40.435Z,9.24
2023-04-16T02:41:07.917Z,9.32
2023-04-16T02:43:35.409Z,9.40
2023-04-16T02:46:03.074Z,9.42
2023-04-16T02:48:31.892Z,9.47
2023-04-16T02:50:59.362Z,9.44
2023-04-16T02:53:29.728Z,9.31
2023-04-16T02:55:57.323Z,9.28
2023-04-16T02:58:26.258Z,9.31
2023-04-16T03:00:53.970Z,9.35
2023-04-16T03:03:22.127Z,9.31
2023-04-16T03:05:51.236Z,9.20
2023-04-16T03:08:18.707Z,9.31
2023-04-16T03:10:46.209Z,9.31
2023-04-16T03:13:14.227Z,9.22
2023-04-16T03:15:41.760Z,9.28
2023-04-16T03:18:09.297Z,9.26
2023-04-16T03:20:36.724Z,9.27
2023-04-16T03:23:05.583Z,9.34
2023-04-16T03:25:33.025Z,9.35
2023-04-16T03:28:00.874Z,9.25
2023-04-16T03:30:28.301Z,9.23
2023-04-16T03:32:55.798Z,9.26
2023-04-16T03:35:23.257Z,9.20
2023-04-16T03:37:51.685Z,9.28
2023-04-16T03:40:20.580Z,9.21
2023-04-16T03:42:48.056Z,9.16
2023-04-16T03:45:15.786Z,9.25
2023-04-16T03:47:43.312Z,9.09
2023-04-16T03:50:12.276Z,9.13
2023-04-16T03:52:39.721Z,9.14
2023-04-16T03:55:08.242Z,9.08
2023-04-16T03:57:37.034Z,8.98
2023-04-16T04:00:05.052Z,9.08
2023-04-16T04:02:32.577Z,9.05
2023-04-16T04:05:00.148Z,9.19
2023-04-16T04:07:27.694Z,9.16
2023-04-16T04:09:55.230Z,9.21
2023-04-16T04:12:22.675Z,9.22
2023-04-16T04:14:51.450Z,9.26
2023-04-16T04:17:18.957Z,9.06
2023-04-16T04:20:00.047Z,9.22
2023-04-16T04:22:28.572Z,9.16
2023-04-16T04:24:56.011Z,9.15
2023-04-16T04:27:23.496Z,9.13
2023-04-16T04:29:52.476Z,9.25
2023-04-16T04:32:19.962Z,9.36
2023-04-16T04:34:47.409Z,9.31
2023-04-16T04:37:14.853Z,9.25
2023-04-16T04:39:42.298Z,9.18
2023-04-16T04:42:09.773Z,9.07
2023-04-16T04:44:37.266Z,9.10
2023-04-16T04:47:06.049Z,9.12
2023-04-16T04:49:33.533Z,9.16
2023-04-16T04:52:01.292Z,9.12
2023-04-16T04:54:29.261Z,9.14
2023-04-16T04:56:56.786Z,8.92
2023-04-16T04:59:24.718Z,8.98
2023-04-16T05:01:52.385Z,8.99
2023-04-16T05:04:21.204Z,9.11
2023-04-16T05:06:48.657Z,9.20
2023-04-16T05:09:16.092Z,9.30
2023-04-16T05:11:43.596Z,9.26
2023-04-16T05:14:11.051Z,9.12
2023-04-16T05:16:38.677Z,9.20
2023-04-16T05:19:06.236Z,9.14
2023-04-16T05:21:35.294Z,9.06
2023-04-16T05:24:02.828Z,9.12
2023-04-16T05:26:30.272Z,9.12
2023-04-16T05:28:57.822Z,9.13
2023-04-16T05:31:25.342Z,9.18
2023-04-16T05:33:52.864Z,9.33
2023-04-16T05:36:20.541Z,9.23
2023-04-16T05:38:49.337Z,9.27
2023-04-16T05:41:16.777Z,9.33
2023-04-16T05:43:44.221Z,9.26
2023-04-16T05:46:11.809Z,9.31
2023-04-16T05:48:39.339Z,9.32
2023-04-16T05:51:06.983Z,9.38
2023-04-16T05:53:34.473Z,9.37
2023-04-16T05:56:03.246Z,9.33
2023-04-16T05:58:30.783Z,9.36
2023-04-16T06:00:58.357Z,9.34
2023-04-16T06:03:25.916Z,9.44
2023-04-16T06:05:53.572Z,9.34
2023-04-16T06:08:21.052Z,9.45
2023-04-16T06:13:17.334Z,9.31
2023-04-16T06:15:44.847Z,9.40
2023-04-16T06:18:12.385Z,9.36
2023-04-16T06:20:39.870Z,9.34
2023-04-16T06:23:07.338Z,9.43
2023-04-16T06:25:34.951Z,9.53
2023-04-16T06:28:02.452Z,9.47
2023-04-16T06:30:31.264Z,9.40
2023-04-16T06:32:58.902Z,9.55
2023-04-16T06:35:26.421Z,9.50
2023-04-16T06:37:53.876Z,9.59
2023-04-16T06:40:21.333Z,9.46
2023-04-16T06:42:48.892Z,9.28
2023-04-16T06:45:16.474Z,9.32
2023-04-16T06:47:45.307Z,9.43
2023-04-16T06:50:12.826Z,9.34
2023-04-16T06:52:40.325Z,9.31
2023-04-16T06:55:09.712Z,9.40
2023-04-16T06:57:37.734Z,9.19
2023-04-16T07:00:06.118Z,9.28
2023-04-16T07:02:33.871Z,9.03
2023-04-16T07:05:02.753Z,9.09
2023-04-16T07:07:30.910Z,9.10
2023-04-16T07:09:58.341Z,9.00
2023-04-16T07:12:25.855Z,9.15
2023-04-16T07:14:53.573Z,9.15
2023-04-16T07:17:20.986Z,9.05
2023-04-16T07:19:49.342Z,9.12
2023-04-16T07:22:18.233Z,9.13
2023-04-16T07:24:45.703Z,9.03
2023-04-16T07:27:13.246Z,9.17
2023-04-16T07:29:40.945Z,9.12
2023-04-16T07:32:08.619Z,9.09
2023-04-16T07:34:36.196Z,9.20
2023-04-16T07:37:03.734Z,9.20
2023-04-16T07:39:32.591Z,9.12
2023-04-16T07:42:00.109Z,9.23
2023-04-16T07:44:27.669Z,9.34
2023-04-16T07:46:55.206Z,9.37
2023-04-16T07:49:22.717Z,9.43
2023-04-16T07:51:50.336Z,9.37
2023-04-16T07:54:17.896Z,9.36
2023-04-16T07:56:46.706Z,9.43
2023-04-16T07:59:22.566Z,9.33
2023-04-16T08:01:50.875Z,9.42
2023-04-16T08:04:24.278Z,9.55
2023-04-16T08:06:52.391Z,9.62
2023-04-16T08:09:20.526Z,9.49
2023-04-16T08:11:50.157Z,9.61
2023-04-16T08:14:17.863Z,9.80
2023-04-16T08:16:45.398Z,9.82
2023-04-16T08:19:13.228Z,9.78
2023-04-16T08:21:40.958Z,9.82
2023-04-16T08:24:08.551Z,9.81
2023-04-16T08:26:36.101Z,9.87
2023-04-16T08:29:05.040Z,9.88
2023-04-16T08:31:32.784Z,10.01
2023-04-16T08:34:01.253Z,10.24
2023-04-16T08:36:28.801Z,10.30
2023-04-16T08:38:56.255Z,10.28
2023-04-16T08:41:25.261Z,10.33
2023-04-16T08:43:54.219Z,10.34
2023-04-16T08:46:25.191Z,10.34
2023-04-16T08:48:54.411Z,10.27
2023-04-16T08:51:23.378Z,10.42
2023-04-16T08:53:53.550Z,10.55
2023-04-16T08:56:22.872Z,10.45
2023-04-16T08:58:52.133Z,10.63
2023-04-16T09:01:20.113Z,10.67
2023-04-16T09:03:49.923Z,10.71
2023-04-16T09:06:18.283Z,10.87
2023-04-16T09:08:46.526Z,10.96
2023-04-16T09:11:14.942Z,10.94
2023-04-16T09:13:42.445Z,10.97
2023-04-16T09:16:10.494Z,11.12
2023-04-16T09:18:38.031Z,11.21
2023-04-16T09:21:07.744Z,11.24
2023-04-16T09:23:35.290Z,11.35
2023-04-16T09:26:02.972Z,11.35
2023-04-16T09:28:40.203Z,11.36
2023-04-16T09:31:15.172Z,11.39
2023-04-16T09:33:42.805Z,11.27
2023-04-16T09:36:12.116Z,11.04
2023-04-16T09:38:49.518Z,11.14
2023-04-16T09:41:17.658Z,11.13
2023-04-16T09:43:56.520Z,11.11
2023-04-16T09:46:24.741Z,11.24
2023-04-16T09:48:52.248Z,11.41
2023-04-16T09:51:21.103Z,11.53
2023-04-16T09:53:52.620Z,11.47
2023-04-16T09:56:24.575Z,11.57
2023-04-16T09:58:52.108Z,11.34
2023-04-16T10:01:20.582Z,11.30
2023-04-16T10:03:50.990Z,11.41
2023-04-16T10:06:21.559Z,11.42
2023-04-16T10:08:50.373Z,11.54
2023-04-16T10:11:18.676Z,11.58
2023-04-16T10:13:46.383Z,11.60
2023-04-16T10:16:14.088Z,11.67
2023-04-16T10:18:42.796Z,11.57
2023-04-16T10:21:11.844Z,11.53
2023-04-16T10:23:41.168Z,11.63
2023-04-16T10:26:08.715Z,11.54
2023-04-16T10:28:36.392Z,11.54
2023-04-16T10:31:05.604Z,11.53
2023-04-16T10:33:34.647Z,11.50
2023-04-16T10:36:10.112Z,11.54
2023-04-16T10:38:41.426Z,11.50
2023-04-16T10:41:09.622Z,11.57
2023-04-16T10:43:41.940Z,11.56
2023-04-16T10:46:20.038Z,11.59
2023-04-16T10:48:50.277Z,11.60
2023-04-16T10:51:29.366Z,11.59
2023-04-16T10:53:59.403Z,11.53
2023-04-16T10:56:27.493Z,11.58
2023-04-16T10:58:56.798Z,11.68
2023-04-16T11:01:32.697Z,11.71
2023-04-16T11:04:02.747Z,11.68
2023-04-16T11:06:31.921Z,11.69
2023-04-16T11:09:00.781Z,11.58
2023-04-16T11:11:29.682Z,11.60
2023-04-16T11:13:57.868Z,11.59
2023-04-16T11:16:27.358Z,11.55
2023-04-16T11:18:57.016Z,11.56
2023-04-16T11:21:25.289Z,11.60
2023-04-16T11:23:53.830Z,11.67
2023-04-16T11:26:24.820Z,11.59
2023-04-16T11:28:52.542Z,11.56
2023-04-16T11:31:20.169Z,11.49
2023-04-16T11:33:47.695Z,11.40
2023-04-16T11:36:15.325Z,11.35
2023-04-16T11:38:42.946Z,11.39
2023-04-16T11:41:11.434Z,11.39
2023-04-16T11:43:40.221Z,11.56
2023-04-16T11:46:20.415Z,11.52
2023-04-16T11:48:55.375Z,11.65
2023-04-16T11:51:23.308Z,11.77
2023-04-16T11:53:52.811Z,11.65
2023-04-16T11:56:28.251Z,11.62
2023-04-16T11:59:13.589Z,11.56
2023-04-16T12:01:42.863Z,11.61
2023-04-16T12:04:10.570Z,11.65
2023-04-16T12:06:38.186Z,11.70
2023-04-16T12:09:23.699Z,11.76
2023-04-16T12:11:51.223Z,11.86
2023-04-16T12:14:21.511Z,11.80
2023-04-16T12:16:49.146Z,11.73
2023-04-16T12:19:16.887Z,11.80
2023-04-16T12:21:45.971Z,11.81
2023-04-16T12:24:16.217Z,11.85
2023-04-16T12:26:45.252Z,11.93
2023-04-16T12:29:21.552Z,11.88
2023-04-16T12:31:49.908Z,11.86
2023-04-16T12:34:18.359Z,11.92
2023-04-16T12:36:47.286Z,11.88
2023-04-16T12:39:15.918Z,11.90
2023-04-16T12:41:44.485Z,11.91
2023-04-16T12:44:17.741Z,12.22
2023-04-16T12:46:46.711Z,12.16
2023-04-16T12:49:14.356Z,12.26
2023-04-16T12:51:42.135Z,12.34
2023-04-16T12:54:09.642Z,12.36
2023-04-16T12:56:37.328Z,12.31
2023-04-16T12:59:04.890Z,12.30
2023-04-16T13:01:32.514Z,12.42
2023-04-16T13:04:01.486Z,12.44
2023-04-16T13:06:29.250Z,12.47
2023-04-16T13:08:57.208Z,12.51
2023-04-16T13:11:24.741Z,12.42
2023-04-16T13:13:52.282Z,12.38
2023-04-16T13:16:19.879Z,12.41
2023-04-16T13:18:47.385Z,12.43
2023-04-16T13:21:16.202Z,12.58
2023-04-16T13:23:43.827Z,12.82
2023-04-16T13:26:12.966Z,12.81
2023-04-16T13:28:40.414Z,12.95
2023-04-16T13:31:08.085Z,13.06
2023-04-16T13:33:35.843Z,13.08
2023-04-16T13:36:03.388Z,13.00
2023-04-16T13:38:32.204Z,12.86
2023-04-16T13:40:59.772Z,13.07
2023-04-16T13:43:27.224Z,13.20
2023-04-16T13:45:54.700Z,13.25
2023-04-16T13:48:22.315Z,13.27
2023-04-16T13:50:49.801Z,13.27
2023-04-16T13:53:17.423Z,13.21
2023-04-16T13:55:46.368Z,13.22
2023-04-16T13:58:13.850Z,13.19
2023-04-16T14:00:41.324Z,13.14
2023-04-16T14:03:08.858Z,13.17
2023-04-16T14:05:36.374Z,12.98
2023-04-16T14:08:03.886Z,12.95
2023-04-16T14:10:32.106Z,13.07
2023-04-16T14:13:00.959Z,13.20
2023-04-16T14:15:29.807Z,13.14
2023-04-16T14:17:57.414Z,12.93
2023-04-16T14:20:24.891Z,12.91
2023-04-16T14:22:52.534Z,12.80
2023-04-16T14:25:20.142Z,12.92
2023-04-16T14:27:47.631Z,13.10
2023-04-16T14:30:16.717Z,13.20
2023-04-16T14:32:44.300Z,13.27
2023-04-16T14:35:11.821Z,13.24
2023-04-16T14:37:39.408Z,13.29
2023-04-16T14:40:08.786Z,13.32
2023-04-16T14:42:37.394Z,13.26
2023-04-16T14:45:06.459Z,13.40
2023-04-16T14:47:35.411Z,13.36
2023-04-16T14:50:03.259Z,13.26
2023-04-16T14:52:31.769Z,13.11
2023-04-16T14:54:59.643Z,13.21
2023-04-16T14:57:27.392Z,13.48
2023-04-16T14:59:54.838Z,13.52
2023-04-16T15:02:22.478Z,13.73
2023-04-16T15:04:51.412Z,13.73
2023-04-16T15:07:18.881Z,13.65
2023-04-16T15:09:46.328Z,13.67
2023-04-16T15:12:13.772Z,13.73
2023-04-16T15:14:41.211Z,13.70
2023-04-16T15:17:08.952Z,13.66
2023-04-16T15:19:36.460Z,13.72
2023-04-16T15:22:05.264Z,13.76
2023-04-16T15:24:32.735Z,13.86
2023-04-16T15:27:02.182Z,13.98
2023-04-16T15:29:29.643Z,14.09
2023-04-16T15:31:57.096Z,14.03
2023-04-16T15:34:24.594Z,13.94
2023-04-16T15:36:52.018Z,13.94
2023-04-16T15:39:21.014Z,13.81
2023-04-16T15:42:00.615Z,13.80
2023-04-16T15:44:30.906Z,13.61
2023-04-16T15:46:58.427Z,13.49
2023-04-16T15:49:26.070Z,13.36
2023-04-16T15:51:53.790Z,13.40
2023-04-16T15:54:22.713Z,13.32
2023-04-16T15:56:50.282Z,13.37
2023-04-16T15:59:17.801Z,13.26
2023-04-16T16:01:45.273Z,13.02
2023-04-16T16:04:12.835Z,13.02
2023-04-16T16:06:40.356Z,12.94
2023-04-16T16:09:08.059Z,13.03
2023-04-16T16:11:38.226Z,12.96
2023-04-16T16:14:05.762Z,12.96
2023-04-16T16:16:33.996Z,12.94
2023-04-16T16:19:01.524Z,12.95
2023-04-16T16:21:30.757Z,12.92
2023-04-16T16:23:58.232Z,12.95
2023-04-16T16:26:25.679Z,12.99
2023-04-16T16:28:54.638Z,13.00
2023-04-16T16:31:22.093Z,12.98
2023-04-16T16:33:49.571Z,12.99
2023-04-16T16:36:17.417Z,13.06
2023-04-16T16:38:47.254Z,13.01
2023-04-16T16:41:14.744Z,12.99
2023-04-16T16:43:42.203Z,12.97
2023-04-16T16:46:11.397Z,12.97
2023-04-16T16:48:38.933Z,12.98
2023-04-16T16:51:10.244Z,12.94
2023-04-16T16:53:37.744Z,12.98
2023-04-16T16:56:05.664Z,12.92
2023-04-16T16:58:33.166Z,12.79
2023-04-16T17:01:00.645Z,12.71
2023-04-16T17:03:29.589Z,12.68
2023-04-16T17:05:57.166Z,12.58
2023-04-16T17:08:24.758Z,12.52
2023-04-16T17:10:52.265Z,12.55
2023-04-16T17:13:20.480Z,12.51
2023-04-16T17:15:47.980Z,12.55
2023-04-16T17:18:15.484Z,12.48
2023-04-16T17:20:44.234Z,12.44
2023-04-16T17:23:11.962Z,12.49
2023-04-16T17:25:39.431Z,12.54
2023-04-16T17:28:06.918Z,12.51
2023-04-16T17:30:34.423Z,12.48
2023-04-16T17:33:04.241Z,12.50
2023-04-16T17:35:31.967Z,12.59
2023-04-16T17:38:01.150Z,12.55
2023-04-16T17:40:28.594Z,12.49
2023-04-16T17:42:56.164Z,12.42
2023-04-16T17:45:23.626Z,12.48
2023-04-16T17:47:51.394Z,12.51
2023-04-16T17:50:18.912Z,12.48
2023-04-16T17:52:47.148Z,12.42
2023-04-16T17:55:16.612Z,12.38
2023-04-16T17:57:44.604Z,12.31
2023-04-16T18:00:14.162Z,12.39
2023-04-16T18:02:41.925Z,12.38
2023-04-16T18:05:10.331Z,12.42
2023-04-16T18:07:38.911Z,12.43
2023-04-16T18:10:07.735Z,12.30
2023-04-16T18:12:36.582Z,12.23
2023-04-16T18:15:04.507Z,12.15
2023-04-16T18:17:31.982Z,12.13
2023-04-16T18:19:59.481Z,12.11
2023-04-16T18:22:28.329Z,12.20
2023-04-16T18:24:56.041Z,12.18
2023-04-16T18:27:23.525Z,12.16
2023-04-16T18:29:54.596Z,12.15
2023-04-16T18:32:22.843Z,12.13
2023-04-16T18:34:50.398Z,12.09
2023-04-16T18:37:18.175Z,12.03
2023-04-16T18:39:45.715Z,11.96
2023-04-16T18:42:13.170Z,12.05
2023-04-16T18:44:40.644Z,12.03
2023-04-16T18:47:09.763Z,12.04
2023-04-16T18:49:37.243Z,11.97
2023-04-16T18:52:04.765Z,11.96
2023-04-16T18:54:32.226Z,11.96
2023-04-16T18:57:00.815Z,11.90
2023-04-16T18:59:28.470Z,11.89
2023-04-16T19:01:56.019Z,11.85
2023-04-16T19:04:24.980Z,11.78
2023-04-16T19:06:52.446Z,11.77
2023-04-16T19:09:20.286Z,11.68
2023-04-16T19:11:50.267Z,11.64
2023-04-16T19:14:17.741Z,11.61
2023-04-16T19:16:45.305Z,11.64
2023-04-16T19:19:12.961Z,11.61
2023-04-16T19:21:42.176Z,11.56
2023-04-16T19:24:09.738Z,11.51
2023-04-16T19:26:37.234Z,11.50
2023-04-16T19:29:04.727Z,11.43
2023-04-16T19:31:32.209Z,11.37
2023-04-16T19:33:59.677Z,11.14
2023-04-16T19:36:27.137Z,11.29
2023-04-16T19:38:55.926Z,11.32
2023-04-16T19:41:23.400Z,11.25
2023-04-16T19:43:52.093Z,11.25
2023-04-16T19:46:19.680Z,11.24
2023-04-16T19:48:47.204Z,11.18
2023-04-16T19:51:14.711Z,11.15
2023-04-16T19:53:42.152Z,11.11
2023-04-16T19:56:11.177Z,11.13
2023-04-16T19:58:39.134Z,11.06
2023-04-16T20:01:09.559Z,11.05
2023-04-16T20:03:37.188Z,11.01
2023-04-16T20:06:05.421Z,11.08
2023-04-16T20:08:32.897Z,11.03
2023-04-16T20:11:00.462Z,11.02
2023-04-16T20:13:29.281Z,11.01
2023-04-16T20:15:57.679Z,10.99
2023-04-16T20:18:27.601Z,10.97
2023-04-16T20:20:55.732Z,10.97
2023-04-16T20:23:23.226Z,10.99
2023-04-16T20:25:50.776Z,10.94
2023-04-16T20:28:21.277Z,10.93
2023-04-16T20:30:50.909Z,10.99
2023-04-16T20:33:18.549Z,10.96
2023-04-16T20:35:46.085Z,11.01
2023-04-16T20:38:13.588Z,10.84
2023-04-16T20:40:41.809Z,10.99
2023-04-16T20:43:10.335Z,10.91
2023-04-16T20:45:42.103Z,10.94
2023-04-16T20:48:11.770Z,10.95
2023-04-16T20:50:39.331Z,11.00
2023-04-16T20:53:06.751Z,10.90
2023-04-16T20:55:34.333Z,10.90
2023-04-16T20:58:01.868Z,10.83
2023-04-16T21:00:29.363Z,10.86
2023-04-16T21:02:56.924Z,10.92
2023-04-16T21:05:26.508Z,10.92
2023-04-16T21:07:55.747Z,10.88
2023-04-16T21:10:23.441Z,10.84
2023-04-16T21:12:50.917Z,10.83
2023-04-16T21:15:18.421Z,10.83
2023-04-16T21:17:45.958Z,10.91
2023-04-16T21:20:13.998Z,10.79
2023-04-16T21:22:42.925Z,10.88
2023-04-16T21:25:11.063Z,10.83
2023-04-16T21:27:38.579Z,10.89
2023-04-16T21:30:06.878Z,10.91
2023-04-16T21:32:34.362Z,10.85
2023-04-16T21:35:01.908Z,10.88
2023-04-16T21:37:29.370Z,10.99
2023-04-16T21:39:58.188Z,10.90
2023-04-16T21:42:25.726Z,10.79
2023-04-16T21:44:53.464Z,10.79
2023-04-16T21:47:21.079Z,10.81
2023-04-16T21:49:48.574Z,10.92
2023-04-16T21:52:18.170Z,10.87
2023-04-16T21:54:45.877Z,10.75
2023-04-16T21:57:14.811Z,10.86
2023-04-16T21:59:42.321Z,10.92
2023-04-16T22:02:09.859Z,10.84
2023-04-16T22:04:40.180Z,10.90
2023-04-16T22:07:08.856Z,10.83
2023-04-16T22:09:36.368Z,10.75
2023-04-16T22:12:03.960Z,10.73
2023-04-16T22:14:32.735Z,10.71
2023-04-16T22:17:00.282Z,10.75
2023-04-16T22:19:28.128Z,10.65
2023-04-16T22:21:56.191Z,10.74
2023-04-16T22:24:23.725Z,10.76
2023-04-16T22:26:51.182Z,10.58
2023-04-16T22:29:18.601Z,10.54
2023-04-16T22:31:47.615Z,10.65
2023-04-16T22:34:15.222Z,10.60
2023-04-16T22:36:42.769Z,10.49
2023-04-16T22:39:10.365Z,10.49
2023-04-16T22:41:38.376Z,10.42
2023-04-16T22:44:06.083Z,10.54
2023-04-16T22:46:33.612Z,10.50
2023-04-16T22:49:02.532Z,10.48
2023-04-16T22:51:30.429Z,10.46
2023-04-16T22:53:57.875Z,10.47
2023-04-16T22:56:28.567Z,10.49
2023-04-16T22:58:56.133Z,10.36
2023-04-16T23:01:23.758Z,10.28
2023-04-16T23:03:51.419Z,10.31
2023-04-16T23:06:20.542Z,10.32
2023-04-16T23:08:47.990Z,10.28
2023-04-16T23:11:15.449Z,10.32
2023-04-16T23:13:43.030Z,10.34
2023-04-16T23:16:10.637Z,10.23
2023-04-16T23:18:38.165Z,10.30
2023-04-16T23:21:05.999Z,10.30
2023-04-16T23:23:34.840Z,10.31
2023-04-16T23:26:02.755Z,10.25
2023-04-16T23:28:30.290Z,10.16
2023-04-16T23:30:57.769Z,10.20
2023-04-16T23:33:25.259Z,10.30
2023-04-16T23:35:52.738Z,10.31
2023-04-16T23:38:20.218Z,10.38
2023-04-16T23:40:49.020Z,10.34
2023-04-16T23:43:16.552Z,10.31
2023-04-16T23:45:44.087Z,10.27
2023-04-16T23:48:11.585Z,10.32
2023-04-16T23:50:39.062Z,10.29
2023-04-16T23:53:06.545Z,10.29
2023-04-16T23:55:34.055Z,10.35
2023-04-16T23:58:02.896Z,10.35
